createdAt,value
2024-02-02T00:01:32.256Z,2.30
2024-02-02T00:04:14.775Z,2.40
2024-02-02T00:06:57.443Z,2.40
2024-02-02T00:09:40.303Z,2.30
2024-02-02T00:12:23.094Z,2.20
2024-02-02T00:15:06.025Z,2.20
2024-02-02T00:17:48.879Z,2.20
2024-02-02T00:20:31.268Z,2.10
2024-02-02T00:23:13.941Z,2.10
2024-02-02T00:25:56.260Z,2.10
2024-02-02T00:28:39.247Z,2.20
2024-02-02T00:31:23.276Z,2.20
2024-02-02T00:34:06.026Z,2.20
2024-02-02T00:36:48.614Z,2.30
2024-02-02T00:39:31.474Z,2.30
2024-02-02T00:42:14.084Z,2.40
2024-02-02T00:44:58.777Z,2.40
2024-02-02T00:47:41.279Z,2.40
2024-02-02T00:50:23.952Z,2.40
2024-02-02T00:53:06.330Z,2.40
2024-02-02T00:55:49.123Z,2.40
2024-02-02T00:58:31.485Z,2.50
2024-02-02T01:01:14.154Z,2.50
2024-02-02T01:03:56.542Z,2.50
2024-02-02T01:06:39.332Z,2.60
2024-02-02T01:09:21.824Z,2.50
2024-02-02T01:12:04.788Z,2.60
2024-02-02T01:14:47.860Z,2.60
2024-02-02T01:17:30.965Z,2.70
2024-02-02T01:20:15.143Z,2.70
2024-02-02T01:22:58.095Z,2.70
2024-02-02T01:25:40.429Z,2.70
2024-02-02T01:28:23.097Z,2.80
2024-02-02T01:31:05.649Z,2.80
2024-02-02T01:33:48.380Z,2.80
2024-02-02T01:36:31.026Z,2.80
2024-02-02T01:39:14.516Z,2.80
2024-02-02T01:41:57.017Z,2.80
2024-02-02T01:44:39.991Z,2.80
2024-02-02T01:47:22.458Z,2.80
2024-02-02T01:50:05.694Z,2.80
2024-02-02T01:52:48.148Z,2.80
2024-02-02T01:55:31.014Z,2.80
2024-02-02T01:58:13.419Z,2.80
2024-02-02T02:00:56.135Z,2.80
2024-02-02T02:03:38.875Z,2.90
2024-02-02T02:06:21.698Z,2.90
2024-02-02T02:09:04.216Z,2.90
2024-02-02T02:11:46.893Z,2.90
2024-02-02T02:14:30.477Z,2.90
2024-02-02T02:17:13.188Z,2.90
2024-02-02T02:19:59.588Z,3.00
2024-02-02T02:22:42.236Z,3.00
2024-02-02T02:25:24.507Z,3.00
2024-02-02T02:28:07.191Z,3.00
2024-02-02T02:30:49.540Z,3.00
2024-02-02T02:33:32.600Z,3.00
2024-02-02T02:36:15.570Z,3.00
2024-02-02T02:38:58.488Z,3.00
2024-02-02T02:41:40.858Z,3.00
2024-02-02T02:44:23.510Z,3.00
2024-02-02T02:47:06.156Z,3.00
2024-02-02T02:49:48.828Z,3.00
2024-02-02T02:52:31.279Z,3.00
2024-02-02T02:55:13.920Z,3.00
2024-02-02T02:57:56.385Z,3.00
2024-02-02T03:00:39.028Z,3.00
2024-02-02T03:03:21.550Z,3.00
2024-02-02T03:06:04.679Z,3.00
2024-02-02T03:08:47.082Z,3.00
2024-02-02T03:11:30.163Z,3.00
2024-02-02T03:14:12.490Z,3.00
2024-02-02T03:16:55.224Z,3.00
2024-02-02T03:19:38.521Z,3.00
2024-02-02T03:22:21.577Z,3.00
2024-02-02T03:25:04.080Z,3.00
2024-02-02T03:27:46.968Z,3.00
2024-02-02T03:30:29.414Z,3.00
2024-02-02T03:33:12.154Z,3.00
2024-02-02T03:35:54.527Z,3.00
2024-02-02T03:38:37.367Z,3.00
2024-02-02T03:41:19.856Z,3.00
2024-02-02T03:44:02.542Z,3.00
2024-02-02T03:46:44.789Z,3.00
2024-02-02T03:49:27.500Z,3.00
2024-02-02T03:52:09.867Z,3.00
2024-02-02T03:54:52.726Z,3.00
2024-02-02T03:57:35.620Z,3.00
2024-02-02T04:00:18.689Z,3.00
2024-02-02T04:03:01.132Z,3.00
2024-02-02T04:05:44.019Z,3.00
2024-02-02T04:08:26.873Z,2.90
2024-02-02T04:11:09.673Z,2.90
2024-02-02T04:13:52.048Z,3.00
2024-02-02T04:16:34.833Z,3.00
2024-02-02T04:19:19.451Z,3.00
2024-02-02T04:22:02.248Z,2.90
2024-02-02T04:24:45.225Z,2.90
2024-02-02T04:27:28.071Z,2.90
2024-02-02T04:30:11.009Z,3.00
2024-02-02T04:32:53.784Z,3.00
2024-02-02T04:35:36.504Z,3.00
2024-02-02T04:38:19.260Z,3.00
2024-02-02T04:41:01.535Z,3.00
2024-02-02T04:43:44.136Z,2.90
2024-02-02T04:46:26.434Z,3.00
2024-02-02T04:49:09.235Z,3.00
2024-02-02T04:51:51.819Z,2.90
2024-02-02T04:54:35.756Z,2.90
2024-02-02T04:57:18.467Z,2.90
2024-02-02T05:00:01.158Z,2.90
2024-02-02T05:02:43.745Z,2.90
2024-02-02T05:05:26.792Z,3.00
2024-02-02T05:08:09.841Z,3.00
2024-02-02T05:10:52.514Z,2.90
2024-02-02T05:13:34.819Z,2.90
2024-02-02T05:16:17.479Z,2.90
2024-02-02T05:19:00.001Z,2.90
2024-02-02T05:21:43.596Z,2.90
2024-02-02T05:24:38.280Z,3.00
2024-02-02T05:27:27.832Z,3.00
2024-02-02T05:30:10.721Z,2.90
2024-02-02T05:32:53.524Z,3.00
2024-02-02T05:35:35.877Z,2.90
2024-02-02T05:38:18.513Z,2.90
2024-02-02T05:41:00.976Z,2.90
2024-02-02T05:43:43.885Z,2.90
2024-02-02T05:46:26.251Z,2.90
2024-02-02T05:49:09.127Z,2.90
2024-02-02T05:51:52.689Z,2.90
2024-02-02T05:54:37.140Z,2.90
2024-02-02T05:57:19.784Z,2.90
2024-02-02T06:00:02.718Z,2.90
2024-02-02T06:02:48.006Z,2.90
2024-02-02T06:05:34.083Z,2.90
2024-02-02T06:08:16.862Z,2.80
2024-02-02T06:10:59.761Z,2.80
2024-02-02T06:13:42.248Z,2.80
2024-02-02T06:16:27.019Z,2.80
2024-02-02T06:19:09.610Z,2.80
2024-02-02T06:21:52.439Z,2.70
2024-02-02T06:24:35.841Z,2.70
2024-02-02T06:27:23.566Z,2.70
2024-02-02T06:30:08.818Z,2.70
2024-02-02T06:33:00.993Z,2.70
2024-02-02T06:35:45.606Z,2.70
2024-02-02T06:38:28.396Z,2.70
2024-02-02T06:41:12.214Z,2.60
2024-02-02T06:43:54.866Z,2.60
2024-02-02T06:46:37.326Z,2.60
2024-02-02T06:49:20.355Z,2.70
2024-02-02T06:52:03.405Z,2.70
2024-02-02T06:54:46.178Z,2.70
2024-02-02T06:57:32.919Z,2.70
2024-02-02T07:00:16.842Z,2.60
2024-02-02T07:02:59.828Z,2.50
2024-02-02T07:05:45.321Z,2.50
2024-02-02T07:08:27.987Z,2.50
2024-02-02T07:11:13.907Z,2.50
2024-02-02T07:13:56.398Z,2.50
2024-02-02T07:16:39.193Z,2.60
2024-02-02T07:19:42.072Z,2.60
2024-02-02T07:22:53.970Z,2.70
2024-02-02T07:25:41.812Z,2.70
2024-02-02T07:28:37.322Z,2.70
2024-02-02T07:31:37.970Z,2.80
2024-02-02T07:34:42.948Z,2.90
2024-02-02T07:37:48.536Z,2.80
2024-02-02T07:40:31.205Z,2.80
2024-02-02T07:43:13.548Z,2.90
2024-02-02T07:45:56.390Z,2.80
2024-02-02T07:48:39.389Z,2.80
2024-02-02T07:51:24.081Z,2.80
2024-02-02T07:54:06.554Z,2.90
2024-02-02T07:56:49.324Z,2.90
2024-02-02T07:59:32.084Z,2.90
2024-02-02T08:02:14.884Z,3.00
2024-02-02T08:04:57.561Z,3.00
2024-02-02T08:07:40.377Z,3.10
2024-02-02T08:10:22.769Z,3.20
2024-02-02T08:13:05.673Z,3.30
2024-02-02T08:15:48.067Z,3.40
2024-02-02T08:18:31.272Z,3.30
2024-02-02T08:21:13.958Z,3.40
2024-02-02T08:23:56.700Z,3.40
2024-02-02T08:26:39.135Z,3.30
2024-02-02T08:29:21.927Z,3.40
2024-02-02T08:32:06.888Z,3.50
2024-02-02T08:34:49.640Z,3.60
2024-02-02T08:37:32.233Z,3.70
2024-02-02T08:40:32.048Z,3.90
2024-02-02T08:43:21.031Z,4.00
2024-02-02T08:46:11.878Z,3.90
2024-02-02T08:48:56.508Z,3.90
2024-02-02T08:51:52.475Z,3.80
2024-02-02T08:54:44.085Z,4.00
2024-02-02T08:57:52.828Z,4.10
2024-02-02T09:00:50.466Z,4.20
2024-02-02T09:03:48.226Z,4.40
2024-02-02T09:06:30.847Z,4.60
2024-02-02T09:09:16.009Z,4.60
2024-02-02T09:12:06.015Z,4.60
2024-02-02T09:14:48.737Z,4.50
2024-02-02T09:17:31.869Z,4.40
2024-02-02T09:20:38.728Z,4.20
2024-02-02T09:23:21.336Z,4.20
2024-02-02T09:26:13.278Z,4.30
2024-02-02T09:28:58.107Z,4.50
2024-02-02T09:31:40.829Z,4.50
2024-02-02T09:34:26.514Z,4.50
2024-02-02T09:37:23.655Z,4.50
2024-02-02T09:40:41.051Z,4.50
2024-02-02T09:43:45.277Z,4.60
2024-02-02T09:46:45.527Z,4.60
2024-02-02T09:49:45.780Z,4.60
2024-02-02T09:52:59.016Z,4.70
2024-02-02T09:56:07.063Z,4.80
2024-02-02T09:59:31.029Z,5.00
2024-02-02T10:03:00.957Z,5.20
2024-02-02T10:05:53.365Z,5.30
2024-02-02T10:08:36.170Z,5.20
2024-02-02T10:11:37.163Z,5.20
2024-02-02T10:14:51.010Z,5.10
2024-02-02T10:18:05.051Z,5.00
2024-02-02T10:21:28.871Z,5.00
2024-02-02T10:24:18.299Z,5.00
2024-02-02T10:27:26.481Z,5.10
2024-02-02T10:30:21.186Z,5.00
2024-02-02T10:33:13.514Z,5.00
2024-02-02T10:35:59.117Z,5.20
2024-02-02T10:38:58.073Z,5.40
2024-02-02T10:42:15.853Z,5.30
2024-02-02T10:45:26.411Z,5.40
2024-02-02T10:48:41.176Z,5.30
2024-02-02T10:51:55.632Z,5.30
2024-02-02T10:55:12.513Z,5.40
2024-02-02T10:58:33.482Z,5.50
2024-02-02T11:01:35.855Z,5.50
2024-02-02T11:04:28.450Z,5.50
2024-02-02T11:07:22.967Z,5.40
2024-02-02T11:10:12.055Z,5.20
2024-02-02T11:13:17.449Z,5.30
2024-02-02T11:16:26.409Z,5.30
2024-02-02T11:19:25.405Z,5.50
2024-02-02T11:22:39.128Z,5.60
2024-02-02T11:25:22.546Z,5.70
2024-02-02T11:28:14.814Z,5.80
2024-02-02T11:31:26.533Z,5.80
2024-02-02T11:34:34.937Z,5.80
2024-02-02T11:38:09.933Z,5.90
2024-02-02T11:40:54.108Z,5.90
2024-02-02T11:43:37.108Z,5.90
2024-02-02T11:46:25.387Z,5.90
2024-02-02T11:49:10.833Z,5.90
2024-02-02T11:52:05.936Z,6.00
2024-02-02T11:55:29.501Z,6.00
2024-02-02T11:58:13.177Z,6.10
2024-02-02T12:01:09.754Z,6.10
2024-02-02T12:04:23.733Z,6.10
2024-02-02T12:07:33.793Z,6.00
2024-02-02T12:10:23.297Z,6.10
2024-02-02T12:13:07.820Z,6.00
2024-02-02T12:15:54.006Z,6.00
2024-02-02T12:18:38.709Z,6.00
2024-02-02T12:21:22.434Z,6.00
2024-02-02T12:24:05.398Z,6.00
2024-02-02T12:26:49.610Z,5.90
2024-02-02T12:29:33.185Z,5.80
2024-02-02T12:32:16.024Z,5.80
2024-02-02T12:34:58.912Z,5.80
2024-02-02T12:37:46.181Z,5.80
2024-02-02T12:40:28.851Z,5.80
2024-02-02T12:43:11.545Z,5.80
2024-02-02T12:45:56.921Z,5.90
2024-02-02T12:48:39.690Z,5.90
2024-02-02T12:51:22.611Z,5.90
2024-02-02T12:54:07.017Z,5.90
2024-02-02T12:56:49.743Z,5.90
2024-02-02T12:59:33.430Z,5.90
2024-02-02T13:02:17.611Z,5.90
2024-02-02T13:05:01.767Z,5.90
2024-02-02T13:07:49.100Z,5.90
2024-02-02T13:10:48.845Z,5.90
2024-02-02T13:13:34.814Z,5.80
2024-02-02T13:16:30.983Z,5.80
2024-02-02T13:19:35.059Z,5.80
2024-02-02T13:22:30.393Z,5.90
2024-02-02T13:25:12.977Z,5.80
2024-02-02T13:27:55.979Z,5.80
2024-02-02T13:30:38.763Z,5.80
2024-02-02T13:33:21.935Z,5.80
2024-02-02T13:36:10.843Z,5.80
2024-02-02T13:38:56.840Z,5.80
2024-02-02T13:41:40.835Z,5.80
2024-02-02T13:44:24.588Z,5.80
2024-02-02T13:47:13.862Z,5.80
2024-02-02T13:50:01.136Z,5.70
2024-02-02T13:52:50.257Z,5.70
2024-02-02T13:55:34.943Z,5.60
2024-02-02T13:58:17.738Z,5.60
2024-02-02T14:01:11.340Z,5.60
2024-02-02T14:03:55.675Z,5.60
2024-02-02T14:06:39.353Z,5.60
2024-02-02T14:09:26.887Z,5.50
2024-02-02T14:12:10.253Z,5.50
2024-02-02T14:14:53.008Z,5.50
2024-02-02T14:17:36.193Z,5.40
2024-02-02T14:20:25.219Z,5.40
2024-02-02T14:23:12.220Z,5.40
2024-02-02T14:25:54.570Z,5.30
2024-02-02T14:28:37.906Z,5.20
2024-02-02T14:31:21.852Z,5.20
2024-02-02T14:34:04.979Z,5.20
2024-02-02T14:36:47.570Z,5.10
2024-02-02T14:39:32.534Z,5.00
2024-02-02T14:42:15.489Z,5.00
2024-02-02T14:45:00.582Z,4.90
2024-02-02T14:47:45.779Z,4.90
2024-02-02T14:50:29.394Z,4.80
2024-02-02T14:53:11.858Z,4.80
2024-02-02T14:55:55.001Z,4.70
2024-02-02T14:58:37.769Z,4.70
2024-02-02T15:01:22.738Z,4.70
2024-02-02T15:04:09.748Z,4.70
2024-02-02T15:06:53.700Z,4.60
2024-02-02T15:09:37.402Z,4.60
2024-02-02T15:12:20.707Z,4.60
2024-02-02T15:15:03.588Z,4.50
2024-02-02T15:17:46.640Z,4.50
2024-02-02T15:20:29.241Z,4.50
2024-02-02T15:23:12.844Z,4.50
2024-02-02T15:25:55.400Z,4.50
2024-02-02T15:28:39.787Z,4.50
2024-02-02T15:31:22.947Z,4.40
2024-02-02T15:34:08.064Z,4.40
2024-02-02T15:36:51.277Z,4.40
2024-02-02T15:39:38.528Z,4.40
2024-02-02T15:42:22.050Z,4.40
2024-02-02T15:45:06.467Z,4.30
2024-02-02T15:47:51.868Z,4.30
2024-02-02T15:50:35.106Z,4.30
2024-02-02T15:53:19.618Z,4.20
2024-02-02T15:56:02.765Z,4.20
2024-02-02T15:58:45.372Z,4.20
2024-02-02T16:01:28.551Z,4.20
2024-02-02T16:04:11.099Z,4.20
2024-02-02T16:07:04.211Z,4.20
2024-02-02T16:09:46.748Z,4.20
2024-02-02T16:12:29.441Z,4.10
2024-02-02T16:15:14.826Z,4.20
2024-02-02T16:17:58.129Z,4.10
2024-02-02T16:20:40.767Z,4.10
2024-02-02T16:23:25.213Z,4.10
2024-02-02T16:26:08.126Z,4.10
2024-02-02T16:28:50.839Z,4.00
2024-02-02T16:31:33.242Z,4.00
2024-02-02T16:34:16.506Z,3.90
2024-02-02T16:36:59.060Z,3.90
2024-02-02T16:39:41.876Z,3.90
2024-02-02T16:42:24.535Z,3.90
2024-02-02T16:45:09.176Z,3.80
2024-02-02T16:47:54.270Z,3.80
2024-02-02T16:50:38.209Z,3.80
2024-02-02T16:53:20.803Z,3.80
2024-02-02T16:56:03.602Z,3.80
2024-02-02T16:58:47.349Z,3.70
2024-02-02T17:01:35.583Z,3.80
2024-02-02T17:04:18.351Z,3.80
2024-02-02T17:07:01.653Z,3.70
2024-02-02T17:09:47.214Z,3.70
2024-02-02T17:12:30.328Z,3.70
2024-02-02T17:15:13.344Z,3.70
2024-02-02T17:17:56.555Z,3.70
2024-02-02T17:20:38.967Z,3.70
2024-02-02T17:23:21.753Z,3.70
2024-02-02T17:26:04.307Z,3.70
2024-02-02T17:28:47.450Z,3.70
2024-02-02T17:31:29.738Z,3.80
2024-02-02T17:34:12.767Z,3.70
2024-02-02T17:36:55.293Z,3.70
2024-02-02T17:39:40.127Z,3.70
2024-02-02T17:42:22.612Z,3.70
2024-02-02T17:45:05.796Z,3.70
2024-02-02T17:47:48.425Z,3.60
2024-02-02T17:50:31.276Z,3.60
2024-02-02T17:53:14.029Z,3.60
2024-02-02T17:55:56.655Z,3.60
2024-02-02T17:58:39.501Z,3.60
2024-02-02T18:01:23.822Z,3.60
2024-02-02T18:04:06.430Z,3.60
2024-02-02T18:06:49.175Z,3.60
2024-02-02T18:09:32.305Z,3.60
2024-02-02T18:12:15.392Z,3.70
2024-02-02T18:14:57.909Z,3.70
2024-02-02T18:17:41.664Z,3.60
2024-02-02T18:20:24.040Z,3.60
2024-02-02T18:23:07.213Z,3.60
2024-02-02T18:25:49.603Z,3.60
2024-02-02T18:28:32.619Z,3.60
2024-02-02T18:31:15.028Z,3.50
2024-02-02T18:33:57.821Z,3.60
2024-02-02T18:36:43.918Z,3.60
2024-02-02T18:39:26.673Z,3.60
2024-02-02T18:42:09.729Z,3.60
2024-02-02T18:44:52.444Z,3.60
2024-02-02T18:47:35.539Z,3.60
2024-02-02T18:50:19.473Z,3.60
2024-02-02T18:53:01.812Z,3.60
2024-02-02T18:55:46.153Z,3.70
2024-02-02T18:58:35.754Z,3.70
2024-02-02T19:01:33.692Z,3.70
2024-02-02T19:04:16.353Z,3.70
2024-02-02T19:06:59.111Z,3.70
2024-02-02T19:09:41.519Z,3.80
2024-02-02T19:12:24.299Z,3.80
2024-02-02T19:15:08.031Z,3.80
2024-02-02T19:17:51.132Z,3.80
2024-02-02T19:20:35.380Z,3.90
2024-02-02T19:23:18.098Z,3.90
2024-02-02T19:26:04.593Z,3.90
2024-02-02T19:28:47.532Z,3.90
2024-02-02T19:31:33.104Z,3.90
2024-02-02T19:34:15.985Z,3.90
2024-02-02T19:36:59.013Z,3.90
2024-02-02T19:39:41.993Z,4.00
2024-02-02T19:42:24.505Z,4.00
2024-02-02T19:45:07.525Z,4.00
2024-02-02T19:47:50.046Z,4.00
2024-02-02T19:50:32.683Z,4.00
2024-02-02T19:53:15.068Z,4.00
2024-02-02T19:55:57.757Z,4.00
2024-02-02T19:58:41.724Z,4.00
2024-02-02T20:01:27.311Z,4.00
2024-02-02T20:04:09.943Z,4.00
2024-02-02T20:06:52.817Z,4.00
2024-02-02T20:09:36.173Z,4.00
2024-02-02T20:12:19.063Z,4.00
2024-02-02T20:15:01.428Z,4.00
2024-02-02T20:17:44.431Z,4.00
2024-02-02T20:20:29.684Z,4.00
2024-02-02T20:23:12.471Z,4.00
2024-02-02T20:25:54.782Z,3.90
2024-02-02T20:28:37.407Z,3.90
2024-02-02T20:31:20.123Z,3.90
2024-02-02T20:34:03.057Z,3.80
2024-02-02T20:36:46.164Z,3.80
2024-02-02T20:39:33.666Z,3.80
2024-02-02T20:42:16.689Z,3.80
2024-02-02T20:45:01.464Z,3.80
2024-02-02T20:47:45.717Z,3.80
2024-02-02T20:50:28.795Z,3.80
2024-02-02T20:53:11.233Z,3.70
2024-02-02T20:55:56.038Z,3.70
2024-02-02T20:58:38.572Z,3.80
2024-02-02T21:01:21.533Z,3.70
2024-02-02T21:04:04.186Z,3.80
2024-02-02T21:06:47.101Z,3.80
2024-02-02T21:09:31.357Z,3.90
2024-02-02T21:12:14.248Z,3.90
2024-02-02T21:14:56.954Z,3.90
2024-02-02T21:17:46.110Z,4.00
2024-02-02T21:20:33.956Z,4.00
2024-02-02T21:23:18.978Z,4.00
2024-02-02T21:26:01.458Z,4.00
2024-02-02T21:28:44.432Z,4.10
2024-02-02T21:31:26.795Z,4.10
2024-02-02T21:34:09.601Z,4.10
2024-02-02T21:36:52.156Z,4.10
2024-02-02T21:39:37.922Z,4.20
2024-02-02T21:42:20.294Z,4.20
2024-02-02T21:45:02.954Z,4.30
2024-02-02T21:47:45.770Z,4.30
2024-02-02T21:50:28.443Z,4.40
2024-02-02T21:53:14.502Z,4.40
2024-02-02T21:55:57.070Z,4.40
2024-02-02T21:58:39.420Z,4.40
2024-02-02T22:01:22.193Z,4.40
2024-02-02T22:04:05.110Z,4.50
2024-02-02T22:06:47.879Z,4.50
2024-02-02T22:09:31.927Z,4.50
2024-02-02T22:12:15.175Z,4.50
2024-02-02T22:14:58.981Z,4.60
2024-02-02T22:17:41.711Z,4.60
2024-02-02T22:20:23.994Z,4.60
2024-02-02T22:23:06.591Z,4.60
2024-02-02T22:25:48.970Z,4.60
2024-02-02T22:28:31.851Z,4.70
2024-02-02T22:31:18.786Z,4.70
2024-02-02T22:34:01.444Z,4.70
2024-02-02T22:36:43.911Z,4.70
2024-02-02T22:39:26.883Z,4.70
2024-02-02T22:42:09.484Z,4.70
2024-02-02T22:44:52.066Z,4.70
2024-02-02T22:47:34.391Z,4.70
2024-02-02T22:50:17.172Z,4.80
2024-02-02T22:52:59.488Z,4.80
2024-02-02T22:55:42.123Z,4.90
2024-02-02T22:58:25.199Z,4.90
2024-02-02T23:01:11.236Z,5.00
2024-02-02T23:03:53.675Z,5.00
2024-02-02T23:06:36.473Z,5.10
2024-02-02T23:09:18.966Z,5.20
2024-02-02T23:12:01.637Z,5.30
2024-02-02T23:14:44.048Z,5.40
2024-02-02T23:17:26.762Z,5.40
2024-02-02T23:20:10.173Z,5.50
2024-02-02T23:22:53.013Z,5.50
2024-02-02T23:25:35.803Z,5.50
2024-02-02T23:28:18.910Z,5.50
2024-02-02T23:31:02.072Z,5.60
2024-02-02T23:33:44.881Z,5.60
2024-02-02T23:36:27.515Z,5.60
2024-02-02T23:39:10.462Z,5.60
2024-02-02T23:41:52.863Z,5.60
2024-02-02T23:44:36.510Z,5.60
2024-02-02T23:47:18.973Z,5.70
2024-02-02T23:50:01.674Z,5.70
2024-02-02T23:52:44.234Z,5.70
2024-02-02T23:55:26.838Z,5.70
2024-02-02T23:58:09.306Z,5.70
